Time;durP1;ratioP1;P1;durP2;ratioP2;P2;SDS_P1;SDS_P2;PMS_P1;PMS_P2;Temp;Humidity;BMP_temperature;BMP_pressure;BME280_temperature;BME280_humidity;BME280_pressure;Samples;Min_cycle;Max_cycle;Signal;HPM_P1;HPM_P2
2022/09/12 00:03:16;;;;;;;3.77;3.47;;;17.30;42.90;;;;;;10584101;28;20890;-77
2022/09/12 00:08:19;;;;;;;3.50;3.30;;;17.30;42.80;;;;;;10584297;28;20303;-77
2022/09/12 00:13:23;;;;;;;3.73;3.43;;;17.20;42.90;;;;;;10583468;28;20284;-77
2022/09/12 00:18:26;;;;;;;3.73;3.43;;;17.10;43.00;;;;;;10583376;28;21372;-77
2022/09/12 00:23:29;;;;;;;3.90;3.60;;;17.10;42.80;;;;;;10583859;28;20223;-77
2022/09/12 00:28:37;;;;;;;4.20;3.90;;;17.00;42.90;;;;;;10583156;28;20272;-77
2022/09/12 00:33:41;;;;;;;3.90;3.43;;;17.00;42.60;;;;;;10582956;28;20229;-77
2022/09/12 00:38:45;;;;;;;2.83;2.70;;;16.90;42.60;;;;;;10565339;28;20243;-78
2022/09/12 00:43:51;;;;;;;3.20;3.00;;;16.80;42.90;;;;;;10566928;28;20231;-77
2022/09/12 00:48:58;;;;;;;3.27;2.97;;;16.80;43.30;;;;;;10546863;28;20646;-77
2022/09/12 00:54:05;;;;;;;4.27;3.47;;;16.70;43.20;;;;;;10568738;28;20235;-77
2022/09/12 00:59:16;;;;;;;3.13;2.93;;;16.70;43.10;;;;;;10581362;27;20235;-77
2022/09/12 01:04:22;;;;;;;3.50;3.20;;;16.70;43.10;;;;;;10580441;27;20241;-77
2022/09/12 01:09:25;;;;;;;2.97;2.77;;;16.70;42.90;;;;;;10573872;28;20678;-77
2022/09/12 01:14:31;;;;;;;3.00;2.80;;;16.70;43.00;;;;;;10581412;28;20227;-77
2022/09/12 01:20:09;;;;;;;2.93;2.73;;;16.70;43.00;;;;;;10573334;27;20276;-78
2022/09/12 01:25:24;;;;;;;2.97;2.77;;;16.60;42.90;;;;;;10525568;28;20699;-78
2022/09/12 01:30:48;;;;;;;3.50;3.23;;;16.60;42.90;;;;;;10573430;28;20218;-78
2022/09/12 01:36:08;;;;;;;3.87;2.50;;;16.60;43.00;;;;;;10579722;28;20657;-77
2022/09/12 01:41:24;;;;;;;3.40;2.77;;;16.50;42.90;;;;;;10543771;28;20230;-78
2022/09/12 01:46:35;;;;;;;2.60;2.50;;;16.50;43.00;;;;;;10573026;28;20235;-77
2022/09/12 01:51:42;;;;;;;3.23;2.70;;;16.50;43.00;;;;;;10570902;28;20268;-77
2022/09/12 01:56:48;;;;;;;2.60;2.50;;;16.50;43.10;;;;;;10564016;28;20235;-77
2022/09/12 02:02:01;;;;;;;2.77;2.43;;;16.40;42.90;;;;;;10562222;28;20223;-78
2022/09/12 02:07:11;;;;;;;2.70;2.50;;;16.40;42.90;;;;;;10567153;28;20266;-77
2022/09/12 02:12:18;;;;;;;3.03;2.47;;;16.30;42.60;;;;;;10567709;28;20268;-77
2022/09/12 02:17:25;;;;;;;3.20;2.90;;;16.30;42.70;;;;;;10571248;28;20244;-77
2022/09/12 02:22:33;;;;;;;2.77;2.67;;;16.30;42.80;;;;;;10568288;28;20227;-78
2022/09/12 02:27:40;;;;;;;2.50;2.40;;;16.20;42.30;;;;;;10565961;28;20223;-78
2022/09/12 02:32:54;;;;;;;2.80;2.60;;;16.10;42.00;;;;;;10569962;28;20215;-77
2022/09/12 02:38:02;;;;;;;2.67;2.47;;;15.90;42.20;;;;;;10561338;28;20226;-78
2022/09/12 02:43:07;;;;;;;2.40;2.30;;;15.70;42.60;;;;;;10564346;28;20215;-78
2022/09/12 02:48:14;;;;;;;3.07;2.87;;;15.60;42.90;;;;;;10576210;27;20227;-77
2022/09/12 02:53:19;;;;;;;2.97;2.73;;;15.50;43.30;;;;;;10557347;28;20235;-77
2022/09/12 02:58:26;;;;;;;2.50;2.40;;;15.50;43.20;;;;;;10577379;28;20222;-78
2022/09/12 03:03:51;;;;;;;3.17;2.97;;;15.50;43.20;;;;;;10542982;28;20228;-78
2022/09/12 03:09:06;;;;;;;3.00;2.80;;;15.50;42.90;;;;;;10566917;28;20640;-78
2022/09/12 03:14:21;;;;;;;2.47;2.27;;;15.50;43.00;;;;;;10566785;28;20250;-78
2022/09/12 03:19:35;;;;;;;2.33;2.23;;;15.40;43.20;;;;;;10573402;28;20230;-78
2022/09/12 03:24:44;;;;;;;2.00;1.90;;;15.30;42.70;;;;;;10571150;28;20272;-78
2022/09/12 03:29:49;;;;;;;1.70;1.60;;;15.30;43.00;;;;;;10557323;28;20239;-78
2022/09/12 03:34:53;;;;;;;2.17;2.07;;;15.30;43.00;;;;;;10565907;28;20233;-78
2022/09/12 03:39:57;;;;;;;1.77;1.67;;;15.30;43.00;;;;;;10574784;28;20299;-78
2022/09/12 03:45:00;;;;;;;1.80;1.70;;;15.30;42.90;;;;;;10572767;28;20314;-78
2022/09/12 03:50:06;;;;;;;2.10;2.00;;;15.30;42.90;;;;;;10555732;28;20669;-78
2022/09/12 03:55:09;;;;;;;2.10;2.00;;;15.30;43.00;;;;;;10570302;28;20220;-78
2022/09/12 04:00:13;;;;;;;3.30;1.87;;;15.30;42.90;;;;;;10550917;28;20726;-78
2022/09/12 04:05:23;;;;;;;3.83;2.00;;;15.20;42.80;;;;;;10555645;28;20239;-78
2022/09/12 04:10:26;;;;;;;4.40;2.80;;;15.20;43.00;;;;;;10565545;28;20230;-78
2022/09/12 04:15:29;;;;;;;2.30;2.20;;;15.20;42.80;;;;;;10571630;28;20250;-78
2022/09/12 04:20:34;;;;;;;2.80;2.60;;;15.20;43.00;;;;;;10558277;28;20232;-78
2022/09/12 04:25:37;;;;;;;4.73;3.00;;;15.10;43.10;;;;;;10559779;28;20234;-78
2022/09/12 04:30:40;;;;;;;3.07;2.80;;;15.10;43.10;;;;;;10573594;28;20927;-77
2022/09/12 04:35:45;;;;;;;3.03;2.73;;;15.10;43.10;;;;;;10573197;28;20223;-77
2022/09/12 04:40:49;;;;;;;3.00;2.80;;;15.00;43.30;;;;;;10572946;28;20226;-78
2022/09/12 04:45:52;;;;;;;15.97;3.40;;;15.00;43.40;;;;;;10574309;28;20231;-78
2022/09/12 04:51:07;;;;;;;3.20;3.00;;;15.00;43.20;;;;;;10583597;28;20719;-78
2022/09/12 04:56:11;;;;;;;3.40;3.20;;;14.90;43.60;;;;;;10578438;28;20230;-78
2022/09/12 05:01:17;;;;;;;18.00;4.10;;;14.90;43.50;;;;;;10576842;28;20227;-78
2022/09/12 05:06:30;;;;;;;3.17;2.97;;;14.90;43.60;;;;;;10569705;28;20256;-77
2022/09/12 05:11:35;;;;;;;4.17;3.77;;;14.80;44.20;;;;;;10568329;28;20218;-78
2022/09/12 05:17:00;;;;;;;3.97;3.67;;;14.80;43.60;;;;;;10580002;28;20296;-78
2022/09/12 05:22:05;;;;;;;10.07;3.57;;;14.70;43.50;;;;;;10573782;27;20215;-78
2022/09/12 05:27:08;;;;;;;3.13;2.93;;;14.60;44.00;;;;;;10561168;28;20227;-77
2022/09/12 05:32:12;;;;;;;13.13;3.27;;;14.50;43.90;;;;;;10574452;27;20215;-76
2022/09/12 05:37:16;;;;;;;3.30;3.00;;;14.50;43.90;;;;;;10555739;28;20228;-76
2022/09/12 05:42:19;;;;;;;5.97;2.83;;;14.40;43.80;;;;;;10576533;28;20223;-78
2022/09/12 05:47:23;;;;;;;5.20;3.30;;;14.40;43.80;;;;;;10568344;28;20226;-79
2022/09/12 05:52:28;;;;;;;6.30;3.60;;;14.40;44.40;;;;;;10576275;27;20275;-78
2022/09/12 05:57:32;;;;;;;3.80;3.50;;;14.40;44.70;;;;;;10566196;28;20231;-78
2022/09/12 06:02:35;;;;;;;3.80;3.50;;;14.40;44.50;;;;;;10569457;28;20230;-80
2022/09/12 06:07:40;;;;;;;5.43;3.20;;;14.40;45.00;;;;;;10565608;27;20326;-80
2022/09/12 06:12:43;;;;;;;3.30;3.10;;;14.50;45.80;;;;;;10568012;28;20876;-80
2022/09/12 06:17:48;;;;;;;3.43;3.20;;;14.70;45.80;;;;;;10562867;28;20288;-80
2022/09/12 06:22:54;;;;;;;3.67;3.37;;;14.90;46.10;;;;;;10568444;28;20219;-80
2022/09/12 06:27:58;;;;;;;3.50;3.30;;;15.00;46.10;;;;;;10569827;27;20219;-80
2022/09/12 06:33:01;;;;;;;4.00;3.70;;;15.10;45.90;;;;;;10570721;28;20714;-80
2022/09/12 06:38:05;;;;;;;4.43;4.13;;;15.30;45.90;;;;;;10571948;27;20873;-81
2022/09/12 06:43:08;;;;;;;4.47;4.17;;;15.50;46.10;;;;;;10570473;28;20276;-79
2022/09/12 06:48:12;;;;;;;4.70;4.40;;;15.60;45.60;;;;;;10563810;28;20746;-80
2022/09/12 06:53:16;;;;;;;5.20;4.67;;;15.70;45.70;;;;;;10565269;28;20276;-80
2022/09/12 06:58:19;;;;;;;5.73;5.27;;;15.80;46.10;;;;;;10570605;27;20583;-81
2022/09/12 07:03:22;;;;;;;6.10;5.60;;;15.80;45.80;;;;;;10563350;28;20242;-80
2022/09/12 07:08:30;;;;;;;5.20;4.63;;;15.90;46.00;;;;;;10563486;27;20234;-80
2022/09/12 07:13:33;;;;;;;5.43;4.93;;;16.00;46.50;;;;;;10567544;28;20227;-81
2022/09/12 07:18:38;;;;;;;5.70;5.30;;;16.10;46.40;;;;;;10561515;28;20317;-81
2022/09/12 07:23:43;;;;;;;7.47;6.83;;;16.20;46.70;;;;;;10562251;28;20232;-80
2022/09/12 07:28:52;;;;;;;6.93;6.27;;;16.30;47.60;;;;;;10562227;28;20758;-81
2022/09/12 07:33:56;;;;;;;7.90;6.77;;;16.30;48.00;;;;;;10567320;28;20265;-79
2022/09/12 07:39:00;;;;;;;6.10;5.60;;;16.50;47.80;;;;;;10572578;28;20228;-81
2022/09/12 07:44:05;;;;;;;6.33;5.80;;;16.60;48.60;;;;;;10572291;28;20227;-80
2022/09/12 07:49:11;;;;;;;7.27;6.67;;;16.80;48.20;;;;;;10567667;28;20262;-79
2022/09/12 07:54:17;;;;;;;8.87;7.60;;;17.00;48.90;;;;;;10579321;28;20222;-81
2022/09/12 07:59:20;;;;;;;9.33;8.63;;;17.20;49.60;;;;;;10562647;28;20223;-80
2022/09/12 08:04:44;;;;;;;9.97;9.10;;;17.40;49.10;;;;;;10563499;28;20562;-80
2022/09/12 08:09:48;;;;;;;11.70;10.80;;;17.60;48.80;;;;;;10563637;28;20226;-81
2022/09/12 08:14:53;;;;;;;10.80;9.90;;;17.80;49.10;;;;;;10568924;27;20317;-80
2022/09/12 08:19:57;;;;;;;10.00;9.20;;;18.00;48.90;;;;;;10585839;27;20226;-80
2022/09/12 08:25:02;;;;;;;12.03;11.03;;;18.20;49.50;;;;;;10581372;28;20596;-80
2022/09/12 08:30:06;;;;;;;10.77;9.87;;;18.50;49.70;;;;;;10585857;27;20219;-79
2022/09/12 08:35:09;;;;;;;10.27;9.47;;;18.70;49.10;;;;;;10581378;28;20229;-80
2022/09/12 08:40:17;;;;;;;9.73;8.93;;;18.90;49.00;;;;;;10573005;28;20711;-81
2022/09/12 08:45:30;;;;;;;10.07;9.27;;;19.30;49.30;;;;;;10575945;28;20691;-81
2022/09/12 08:50:33;;;;;;;10.33;9.43;;;19.50;48.90;;;;;;10577596;28;20231;-82
2022/09/12 08:55:41;;;;;;;15.77;14.43;;;19.80;49.00;;;;;;10565270;28;20226;-81
2022/09/12 09:00:52;;;;;;;12.87;11.80;;;20.10;48.80;;;;;;10580006;28;20219;-81
2022/09/12 09:06:05;;;;;;;14.33;13.23;;;20.30;48.60;;;;;;10574975;28;20698;-80
2022/09/12 09:11:30;;;;;;;12.50;11.47;;;20.60;48.20;;;;;;10565938;28;20215;-83
2022/09/12 09:16:37;;;;;;;12.13;11.03;;;20.80;47.50;;;;;;10567336;28;20754;-79
2022/09/12 09:21:45;;;;;;;12.20;11.20;;;21.00;47.60;;;;;;10565461;28;20223;-79
2022/09/12 09:26:57;;;;;;;12.50;11.50;;;21.20;47.10;;;;;;10563716;28;20234;-78
2022/09/12 09:32:03;;;;;;;12.33;11.33;;;21.40;47.10;;;;;;10562529;28;20223;-81
2022/09/12 09:37:16;;;;;;;12.07;11.07;;;21.50;47.20;;;;;;10557738;27;20267;-81
2022/09/12 09:42:34;;;;;;;11.23;10.33;;;21.70;46.70;;;;;;10561918;28;20246;-81
2022/09/12 09:47:38;;;;;;;9.67;8.87;;;22.00;46.30;;;;;;10568874;28;20222;-80
2022/09/12 09:52:41;;;;;;;10.67;9.87;;;22.10;46.60;;;;;;10569402;27;20236;-80
2022/09/12 09:57:47;;;;;;;10.40;9.60;;;22.30;45.50;;;;;;10569763;28;20738;-80
2022/09/12 10:03:06;;;;;;;9.43;8.73;;;22.50;45.40;;;;;;10565706;28;20226;-82
2022/09/12 10:08:21;;;;;;;8.90;8.13;;;22.60;44.90;;;;;;10563484;28;20211;-83
2022/09/12 10:13:30;;;;;;;8.53;7.83;;;22.80;45.10;;;;;;10559809;28;20237;-81
2022/09/12 10:18:41;;;;;;;8.37;7.67;;;23.00;44.30;;;;;;10561516;28;20227;-82
2022/09/12 10:23:46;;;;;;;7.10;6.57;;;23.30;43.60;;;;;;10573172;28;20227;-83
2022/09/12 10:28:53;;;;;;;7.20;6.60;;;23.50;44.10;;;;;;10572821;27;20323;-82
2022/09/12 10:33:59;;;;;;;7.97;7.33;;;23.70;43.20;;;;;;10567014;27;20735;-82
2022/09/12 10:39:04;;;;;;;7.77;7.20;;;23.80;42.60;;;;;;10567744;27;20226;-83
2022/09/12 10:44:15;;;;;;;5.83;5.43;;;23.90;42.80;;;;;;10566397;28;20291;-82
2022/09/12 10:49:24;;;;;;;6.60;5.07;;;23.80;41.50;;;;;;10564442;28;20718;-84
2022/09/12 10:54:28;;;;;;;5.97;5.47;;;23.80;40.20;;;;;;10560260;28;20223;-84
2022/09/12 10:59:45;;;;;;;6.70;6.20;;;23.90;41.40;;;;;;10553982;28;20224;-82
2022/09/12 11:05:00;;;;;;;5.40;5.00;;;23.90;39.90;;;;;;10549921;28;20222;-82
2022/09/12 11:10:18;;;;;;;3.70;3.50;;;23.90;39.60;;;;;;10547067;28;20219;-81
2022/09/12 11:15:44;;;;;;;3.50;3.30;;;23.90;40.00;;;;;;10557343;28;20226;-82
2022/09/12 11:21:13;;;;;;;3.50;3.30;;;23.80;39.80;;;;;;10546871;28;20231;-80
2022/09/12 11:26:28;;;;;;;3.70;3.40;;;23.80;39.80;;;;;;10565750;28;20229;-83
2022/09/12 11:31:56;;;;;;;3.63;3.40;;;23.90;38.90;;;;;;10566703;28;20283;-81
2022/09/12 11:37:14;;;;;;;3.50;3.30;;;23.90;38.80;;;;;;10543799;28;20243;-82
2022/09/12 11:42:26;;;;;;;4.00;3.77;;;24.00;38.10;;;;;;10568983;28;20234;-82
2022/09/12 11:47:34;;;;;;;3.63;3.43;;;24.10;38.00;;;;;;10573214;28;20271;-80
2022/09/12 11:52:39;;;;;;;3.10;2.90;;;24.20;38.60;;;;;;10576822;27;20219;-80
2022/09/12 11:57:45;;;;;;;3.20;3.00;;;24.30;39.70;;;;;;10566833;27;20227;-81
2022/09/12 12:02:58;;;;;;;3.03;2.83;;;24.40;37.80;;;;;;10575201;28;20245;-81
2022/09/12 12:08:05;;;;;;;2.70;2.50;;;24.50;36.60;;;;;;10574843;28;20227;-84
2022/09/12 12:13:18;;;;;;;2.60;2.50;;;24.70;37.60;;;;;;10571647;28;20230;-80
2022/09/12 12:18:25;;;;;;;2.90;2.67;;;24.70;37.20;;;;;;10574204;28;20226;-82
2022/09/12 12:23:31;;;;;;;3.10;2.90;;;24.80;36.30;;;;;;10582193;28;20234;-80
2022/09/12 12:28:59;;;;;;;3.03;2.83;;;24.80;36.70;;;;;;10575964;27;20623;-80
2022/09/12 12:34:26;;;;;;;2.40;2.30;;;24.80;36.20;;;;;;10566417;28;20817;-79
2022/09/12 12:40:03;;;;;;;2.90;2.70;;;24.90;36.50;;;;;;10564595;28;20233;-77
2022/09/12 12:45:49;;;;;;;3.73;3.43;;;24.90;36.10;;;;;;10559454;28;20226;-78
2022/09/12 12:50:54;;;;;;;3.60;3.30;;;25.00;36.40;;;;;;10571173;27;20231;-78
2022/09/12 12:55:57;;;;;;;3.47;3.27;;;25.10;36.00;;;;;;10575412;27;20222;-81
2022/09/12 13:01:10;;;;;;;3.10;2.87;;;25.10;36.30;;;;;;10577226;27;20804;-79
2022/09/12 13:06:28;;;;;;;3.63;3.37;;;25.20;35.00;;;;;;10557916;28;20219;-77
2022/09/12 13:11:34;;;;;;;3.43;3.23;;;25.20;33.10;;;;;;10560974;27;20231;-79
2022/09/12 13:16:39;;;;;;;3.40;3.20;;;25.20;34.60;;;;;;10595037;28;20276;-79
2022/09/12 13:21:59;;;;;;;4.10;3.30;;;25.20;35.10;;;;;;10585826;28;20227;-81
2022/09/12 13:27:03;;;;;;;3.00;2.80;;;25.10;33.20;;;;;;10589326;28;20237;-79
2022/09/12 13:32:06;;;;;;;2.80;2.60;;;25.10;35.70;;;;;;10588291;28;20226;-79
2022/09/12 13:37:38;;;;;;;3.00;2.80;;;25.10;35.20;;;;;;10565953;28;20231;-79
2022/09/12 13:42:42;;;;;;;2.70;2.60;;;25.20;34.10;;;;;;10570093;28;20231;-79
2022/09/12 13:47:47;;;;;;;2.83;2.60;;;25.20;35.00;;;;;;10592838;28;20223;-79
2022/09/12 13:52:56;;;;;;;2.80;2.60;;;25.20;34.60;;;;;;10587223;27;20227;-81
2022/09/12 13:58:02;;;;;;;2.80;2.60;;;25.30;32.90;;;;;;10594653;27;20227;-78
2022/09/12 14:08:48;;;;;;;2.90;2.70;;;25.40;33.40;;;;;;10582249;27;20249;-79
2022/09/12 14:13:52;;;;;;;2.60;2.40;;;25.50;32.90;;;;;;10574514;27;20303;-79
2022/09/12 14:18:55;;;;;;;2.63;2.53;;;25.50;33.90;;;;;;10561452;28;20228;-78
2022/09/12 14:24:01;;;;;;;2.70;2.50;;;25.60;33.90;;;;;;10567953;28;20242;-78
2022/09/12 14:29:07;;;;;;;2.63;2.43;;;25.60;33.10;;;;;;10572912;28;20280;-79
2022/09/12 14:34:13;;;;;;;2.60;2.50;;;25.60;32.70;;;;;;10568009;27;20560;-78
2022/09/12 14:39:24;;;;;;;2.50;2.40;;;25.70;32.70;;;;;;10564611;27;20223;-78
2022/09/12 14:44:29;;;;;;;2.60;2.40;;;25.80;32.00;;;;;;10566442;27;20722;-78
2022/09/12 14:49:36;;;;;;;2.80;2.60;;;25.90;32.70;;;;;;10571187;27;20207;-77
2022/09/12 14:54:43;;;;;;;2.50;2.40;;;25.90;32.20;;;;;;10567232;28;20230;-78
2022/09/12 14:59:46;;;;;;;2.70;2.60;;;26.00;32.00;;;;;;10563215;28;20244;-78
2022/09/12 15:04:52;;;;;;;2.70;2.60;;;26.00;32.70;;;;;;10568483;27;20238;-78
2022/09/12 15:09:58;;;;;;;2.90;2.70;;;26.00;31.60;;;;;;10567610;27;20250;-79
2022/09/12 15:15:13;;;;;;;2.90;2.60;;;26.10;30.50;;;;;;10557581;28;20246;-80
2022/09/12 15:20:16;;;;;;;2.67;2.53;;;26.10;30.30;;;;;;10564855;28;20240;-80
2022/09/12 15:25:21;;;;;;;4.13;2.70;;;26.10;32.20;;;;;;10571012;27;20244;-80
2022/09/12 15:30:24;;;;;;;2.90;2.70;;;26.10;31.20;;;;;;10567860;28;20227;-80
2022/09/12 15:35:32;;;;;;;2.60;2.50;;;26.10;32.10;;;;;;10570532;28;20250;-80
2022/09/12 15:40:37;;;;;;;3.60;2.90;;;26.10;31.30;;;;;;10570877;28;20227;-81
2022/09/12 15:45:43;;;;;;;3.20;3.00;;;26.10;30.80;;;;;;10574076;28;20277;-80
2022/09/12 15:50:47;;;;;;;3.10;2.90;;;26.10;30.70;;;;;;10567323;28;20231;-80
2022/09/12 15:55:51;;;;;;;2.93;2.73;;;26.10;31.80;;;;;;10543405;28;20241;-77
2022/09/12 16:00:54;;;;;;;3.60;3.40;;;26.10;31.20;;;;;;10559895;28;20242;-80
2022/09/12 16:06:00;;;;;;;3.00;2.80;;;26.10;31.70;;;;;;10569002;28;20232;-79
2022/09/12 16:11:07;;;;;;;3.20;3.00;;;26.10;31.30;;;;;;10539741;28;20254;-77
2022/09/12 16:16:11;;;;;;;3.20;2.90;;;26.10;30.50;;;;;;10568026;28;20714;-78
2022/09/12 16:21:14;;;;;;;3.40;3.10;;;26.10;31.40;;;;;;10550835;28;20231;-77
2022/09/12 16:26:20;;;;;;;3.33;3.13;;;26.10;31.40;;;;;;10570808;28;20288;-80
2022/09/12 16:31:27;;;;;;;3.47;3.17;;;26.00;31.10;;;;;;10577962;28;20234;-78
2022/09/12 16:36:30;;;;;;;2.93;2.83;;;26.00;30.20;;;;;;10584852;28;20313;-79
2022/09/12 16:41:35;;;;;;;2.87;2.77;;;26.00;31.40;;;;;;10587737;28;20275;-78
2022/09/12 16:46:38;;;;;;;3.10;2.90;;;25.90;31.10;;;;;;10585743;28;20288;-78
2022/09/12 16:51:46;;;;;;;2.93;2.77;;;25.90;31.30;;;;;;10586066;28;20219;-77
2022/09/12 16:56:51;;;;;;;3.43;3.13;;;25.90;31.70;;;;;;10586234;28;20242;-78
2022/09/12 17:01:55;;;;;;;3.90;3.57;;;25.80;31.80;;;;;;10584666;28;20235;-79
2022/09/12 17:06:58;;;;;;;4.00;3.60;;;25.70;31.70;;;;;;10577748;27;20219;-79
2022/09/12 17:12:03;;;;;;;4.23;3.83;;;25.60;31.80;;;;;;10575762;28;20228;-79
2022/09/12 17:17:06;;;;;;;3.37;3.17;;;25.50;31.80;;;;;;10572842;28;20230;-79
2022/09/12 17:22:10;;;;;;;3.77;3.50;;;25.40;32.20;;;;;;10568950;28;20257;-79
2022/09/12 17:27:14;;;;;;;4.57;3.60;;;25.30;32.40;;;;;;10574856;28;20230;-79
2022/09/12 17:32:17;;;;;;;4.23;3.93;;;25.20;32.40;;;;;;10578648;28;20227;-79
2022/09/12 17:37:21;;;;;;;3.70;3.50;;;25.10;32.80;;;;;;10583035;28;20268;-79
2022/09/12 17:42:26;;;;;;;4.13;3.73;;;25.00;32.90;;;;;;10573959;28;20223;-80
2022/09/12 17:47:29;;;;;;;4.77;4.47;;;24.90;32.90;;;;;;10580100;28;20235;-79
2022/09/12 17:52:32;;;;;;;5.57;5.07;;;24.70;33.00;;;;;;10577396;28;20276;-80
2022/09/12 17:57:37;;;;;;;4.97;4.33;;;24.50;32.90;;;;;;10570576;28;21016;-82
2022/09/12 18:02:40;;;;;;;4.43;4.03;;;24.40;33.40;;;;;;10567076;28;20229;-81
2022/09/12 18:07:43;;;;;;;4.37;4.07;;;24.20;33.30;;;;;;10598626;27;20215;-80
2022/09/12 18:12:49;;;;;;;4.20;3.90;;;24.10;33.60;;;;;;10598201;28;20227;-79
2022/09/12 18:17:52;;;;;;;5.23;4.80;;;24.00;33.70;;;;;;10590314;27;20215;-79
2022/09/12 18:22:55;;;;;;;5.03;4.00;;;23.90;33.60;;;;;;10588100;28;20273;-79
2022/09/12 18:28:00;;;;;;;4.83;4.33;;;23.80;33.80;;;;;;10577098;27;20222;-78
2022/09/12 18:33:08;;;;;;;5.60;4.80;;;23.70;33.90;;;;;;10563099;28;20223;-76
2022/09/12 18:38:11;;;;;;;5.33;4.80;;;23.60;33.90;;;;;;10552342;28;20903;-78
2022/09/12 18:43:15;;;;;;;4.70;4.40;;;23.50;33.90;;;;;;10581596;28;20227;-81
2022/09/12 18:48:18;;;;;;;4.40;4.00;;;23.30;34.00;;;;;;10560722;28;20616;-80
2022/09/12 18:53:22;;;;;;;3.80;3.60;;;23.20;34.00;;;;;;10576165;28;20227;-77
2022/09/12 18:58:27;;;;;;;4.63;4.23;;;23.10;34.00;;;;;;10558140;28;20307;-82
2022/09/12 19:03:30;;;;;;;5.17;4.40;;;23.00;34.10;;;;;;10573187;28;20239;-81
2022/09/12 19:08:34;;;;;;;4.30;4.00;;;22.80;34.80;;;;;;10574540;28;20507;-80
2022/09/12 19:13:40;;;;;;;4.20;3.83;;;22.70;34.40;;;;;;10567803;28;20229;-81
2022/09/12 19:18:44;;;;;;;4.57;4.27;;;22.60;34.60;;;;;;10570817;28;20347;-79
2022/09/12 19:23:47;;;;;;;4.33;3.90;;;22.50;34.50;;;;;;10543016;28;20227;-78
2022/09/12 19:28:53;;;;;;;4.73;4.43;;;22.40;34.50;;;;;;10542494;28;20749;-77
2022/09/12 19:33:59;;;;;;;6.20;4.50;;;22.30;34.70;;;;;;10565010;28;20260;-79
2022/09/12 19:39:03;;;;;;;5.00;4.70;;;22.20;34.80;;;;;;10549518;28;20289;-76
2022/09/12 19:44:08;;;;;;;5.87;4.50;;;22.10;34.70;;;;;;10561038;28;20230;-78
2022/09/12 19:49:12;;;;;;;4.57;4.27;;;22.00;34.70;;;;;;10558462;28;20261;-76
2022/09/12 19:54:15;;;;;;;5.13;4.77;;;21.90;34.80;;;;;;10556536;28;20222;-76
2022/09/12 19:59:19;;;;;;;5.37;4.97;;;21.80;34.80;;;;;;10559863;28;20309;-76
2022/09/12 20:04:23;;;;;;;4.80;4.50;;;21.70;34.90;;;;;;10556922;28;20755;-77
2022/09/12 20:09:26;;;;;;;5.57;5.07;;;21.50;34.70;;;;;;10557959;28;20230;-77
2022/09/12 20:14:30;;;;;;;6.03;5.43;;;21.30;34.70;;;;;;10542101;28;20235;-77
2022/09/12 20:19:34;;;;;;;5.70;5.30;;;21.10;35.00;;;;;;10551310;28;20225;-77
2022/09/12 20:24:37;;;;;;;5.23;4.83;;;20.80;34.90;;;;;;10545338;28;20246;-77
2022/09/12 20:29:41;;;;;;;4.67;4.27;;;20.60;35.20;;;;;;10555768;28;20222;-77
2022/09/12 20:34:45;;;;;;;4.93;4.57;;;20.40;36.10;;;;;;10551653;28;20262;-77
2022/09/12 20:39:48;;;;;;;5.07;4.67;;;20.30;36.00;;;;;;10556908;28;20696;-80
2022/09/12 20:44:54;;;;;;;6.00;5.60;;;20.30;36.30;;;;;;10561667;28;20227;-77
2022/09/12 20:49:58;;;;;;;4.73;4.43;;;20.20;36.70;;;;;;10551036;28;20276;-77
2022/09/12 20:55:01;;;;;;;4.90;4.60;;;20.20;36.60;;;;;;10545030;28;20235;-77
2022/09/12 21:00:09;;;;;;;4.47;4.17;;;20.10;36.60;;;;;;10551923;28;20753;-77
2022/09/12 21:05:13;;;;;;;4.97;4.63;;;20.10;36.90;;;;;;10554565;28;20281;-77
2022/09/12 21:10:16;;;;;;;5.00;4.60;;;20.10;36.60;;;;;;10539434;28;20227;-75
2022/09/12 21:15:20;;;;;;;4.23;3.93;;;20.00;36.60;;;;;;10556174;28;20227;-77
2022/09/12 21:20:23;;;;;;;4.53;4.23;;;19.90;36.40;;;;;;10555599;28;20234;-77
2022/09/12 21:25:27;;;;;;;6.00;5.47;;;19.90;36.40;;;;;;10553433;27;20242;-77
2022/09/12 21:30:32;;;;;;;5.83;5.27;;;19.80;36.30;;;;;;10554167;28;20226;-77
2022/09/12 21:35:35;;;;;;;5.37;4.97;;;19.70;36.20;;;;;;10542181;28;20226;-77
2022/09/12 21:40:38;;;;;;;5.80;5.30;;;19.60;36.20;;;;;;10532896;28;20281;-77
2022/09/12 21:45:43;;;;;;;5.07;4.73;;;19.50;36.10;;;;;;10552760;28;20226;-77
2022/09/12 21:50:50;;;;;;;5.03;4.70;;;19.50;36.60;;;;;;10553011;28;20239;-77
2022/09/12 21:55:53;;;;;;;5.93;5.23;;;19.40;37.00;;;;;;10546980;28;20227;-77
2022/09/12 22:00:59;;;;;;;5.17;4.77;;;19.30;36.20;;;;;;10531478;28;20273;-77
2022/09/12 22:06:04;;;;;;;5.50;5.10;;;19.20;36.70;;;;;;10539731;27;20219;-77
2022/09/12 22:11:09;;;;;;;4.57;4.23;;;19.00;36.80;;;;;;10549369;28;20229;-77
2022/09/12 22:16:14;;;;;;;4.50;4.20;;;18.90;37.00;;;;;;10539743;28;20256;-77
2022/09/12 22:21:20;;;;;;;6.40;5.80;;;18.80;37.20;;;;;;10547168;28;20318;-77
2022/09/12 22:26:24;;;;;;;5.37;4.87;;;18.80;37.50;;;;;;10534778;28;20695;-77
2022/09/12 22:31:28;;;;;;;5.00;4.60;;;18.70;37.10;;;;;;10549858;28;20299;-77
2022/09/12 22:36:31;;;;;;;4.83;4.43;;;18.70;37.70;;;;;;10538775;28;20794;-77
2022/09/12 22:41:40;;;;;;;4.97;4.57;;;18.60;37.30;;;;;;10538185;28;20277;-77
2022/09/12 22:46:45;;;;;;;4.97;4.57;;;18.60;37.10;;;;;;10543602;28;20238;-77
2022/09/12 22:51:48;;;;;;;5.37;4.97;;;18.60;37.40;;;;;;10547890;28;20326;-77
2022/09/12 22:56:51;;;;;;;6.10;5.50;;;18.60;37.30;;;;;;10546614;28;20229;-77
2022/09/12 23:01:56;;;;;;;5.70;5.20;;;18.60;37.20;;;;;;10547695;28;20287;-77
2022/09/12 23:06:59;;;;;;;5.70;5.30;;;18.50;37.40;;;;;;10551934;27;21779;-77
2022/09/12 23:12:03;;;;;;;5.43;4.93;;;18.40;37.10;;;;;;10548148;28;20226;-76
2022/09/12 23:17:07;;;;;;;6.20;5.60;;;18.30;37.20;;;;;;10503143;28;1304221;-77
2022/09/12 23:22:10;;;;;;;5.13;4.73;;;18.20;37.40;;;;;;10549312;27;20765;-77
2022/09/12 23:27:14;;;;;;;4.73;4.43;;;18.10;37.20;;;;;;10551058;27;20218;-76
2022/09/12 23:32:19;;;;;;;4.70;4.40;;;18.00;37.50;;;;;;10547681;28;20234;-77
2022/09/12 23:37:23;;;;;;;4.00;3.60;;;17.90;37.90;;;;;;10548075;28;20862;-77
2022/09/12 23:42:26;;;;;;;4.30;3.93;;;17.90;37.70;;;;;;10547936;27;20283;-77
2022/09/12 23:47:30;;;;;;;4.53;4.13;;;17.80;37.70;;;;;;10547766;28;21051;-77
2022/09/12 23:52:33;;;;;;;4.50;4.03;;;17.80;37.70;;;;;;10547535;28;20230;-76
2022/09/12 23:57:38;;;;;;;4.53;4.13;;;17.80;37.50;;;;;;10549062;28;20226;-77
